Time;durP1;ratioP1;P1;durP2;ratioP2;P2;SDS_P1;SDS_P2;PMS_P1;PMS_P2;Temp;Humidity;BMP_temperature;BMP_pressure;BME280_temperature;BME280_humidity;BME280_pressure;Samples;Min_cycle;Max_cycle;Signal;HPM_P1;HPM_P2
2022/07/13 00:00:17;;;;;;;;;6.00;5.00;;;;;27.08;39.01;101662.66;4959264;28;45824;-81
2022/07/13 00:02:43;;;;;;;;;6.00;5.33;;;;;27.02;38.92;101657.34;4966409;28;45429;-81
2022/07/13 00:05:09;;;;;;;;;7.33;7.33;;;;;26.91;39.81;101645.38;4965888;28;45708;-82
2022/07/13 00:07:35;;;;;;;;;8.33;8.33;;;;;26.97;39.34;101660.25;4977979;28;45632;-81
2022/07/13 00:10:01;;;;;;;;;7.67;6.67;;;;;26.80;39.63;101638.16;4997010;28;45415;-79
2022/07/13 00:12:27;;;;;;;;;5.67;5.67;;;;;26.76;39.51;101638.75;4995774;28;45680;-81
2022/07/13 00:14:52;;;;;;;;;5.67;5.33;;;;;26.81;39.63;101656.72;4984460;28;45411;-81
2022/07/13 00:17:18;;;;;;;;;8.00;7.67;;;;;26.77;40.46;101648.88;4977027;28;47719;-81
2022/07/13 00:19:43;;;;;;;;;8.33;7.33;;;;;26.76;40.58;101652.81;4989484;28;45436;-81
2022/07/13 00:22:09;;;;;;;;;6.00;6.00;;;;;26.73;40.62;101661.03;4998456;28;45725;-80
2022/07/13 00:24:39;;;;;;;;;7.67;6.00;;;;;26.71;40.98;101663.31;4982715;28;45590;-83
2022/07/13 00:27:05;;;;;;;;;5.67;5.67;;;;;26.64;41.02;101652.34;4996576;28;45704;-80
2022/07/13 00:29:30;;;;;;;;;5.33;5.33;;;;;26.52;41.30;101637.84;4977728;28;45421;-82
2022/07/13 00:31:56;;;;;;;;;6.33;5.33;;;;;26.44;41.59;101625.28;4995561;28;45804;-81
2022/07/13 00:34:21;;;;;;;;;7.33;5.67;;;;;26.51;42.00;101642.66;4993227;28;45464;-81
2022/07/13 00:36:47;;;;;;;;;6.33;6.00;;;;;26.56;42.28;101642.59;5010979;28;45737;-82
2022/07/13 00:39:13;;;;;;;;;6.00;5.00;;;;;26.41;42.34;101625.88;4975411;28;45384;-82
2022/07/13 00:41:48;;;;;;;;;7.00;6.00;;;;;26.49;43.12;101646.88;4994381;28;45312;-81
2022/07/13 00:44:15;;;;;;;;;6.33;4.00;;;;;26.36;42.79;101623.06;4983729;28;45690;-80
2022/07/13 00:46:53;;;;;;;;;7.33;5.33;;;;;26.35;43.41;101627.03;4979877;28;46791;-80
2022/07/13 00:49:19;;;;;;;;;5.67;4.67;;;;;26.30;43.72;101616.66;4975613;28;45606;-79
2022/07/13 00:51:44;;;;;;;;;5.00;4.00;;;;;26.24;43.58;101609.41;4970765;28;45488;-81
2022/07/13 00:54:11;;;;;;;;;5.67;4.00;;;;;26.07;44.05;101590.16;4977076;28;45857;-82
2022/07/13 00:56:37;;;;;;;;;5.33;5.00;;;;;26.23;44.79;101622.63;4974323;28;47092;-81
2022/07/13 00:59:06;;;;;;;;;7.33;5.00;;;;;26.25;44.44;101640.03;4995907;28;46004;-81
2022/07/13 01:01:31;;;;;;;;;4.00;4.00;;;;;26.02;44.83;101596.66;4999049;28;45524;-80
2022/07/13 01:03:57;;;;;;;;;8.00;4.00;;;;;26.19;44.84;101618.72;4997705;28;45656;-82
2022/07/13 01:06:23;;;;;;;;;7.33;3.67;;;;;26.21;44.77;101627.72;4998891;28;46522;-81
2022/07/13 01:08:49;;;;;;;;;4.00;4.00;;;;;26.00;44.63;101596.09;4998470;28;45665;-80
2022/07/13 01:11:15;;;;;;;;;5.00;4.00;;;;;26.08;44.92;101606.72;4998990;28;45694;-81
2022/07/13 01:13:42;;;;;;;;;4.00;4.00;;;;;26.19;44.34;101637.56;4993080;28;45975;-81
2022/07/13 01:16:09;;;;;;;;;3.33;3.33;;;;;26.06;45.17;101616.56;4998746;28;45502;-82
2022/07/13 01:18:35;;;;;;;;;5.00;3.00;;;;;26.08;45.25;101623.59;4998377;28;45938;-81
2022/07/13 01:21:01;;;;;;;;;5.33;5.33;;;;;25.97;44.93;101601.44;5006059;28;45585;-80
2022/07/13 01:23:27;;;;;;;;;3.00;3.00;;;;;26.11;45.16;101630.59;4988559;28;45771;-81
2022/07/13 01:25:56;;;;;;;;;3.33;3.00;;;;;26.09;44.97;101635.66;4988744;28;46006;-80
2022/07/13 01:28:23;;;;;;;;;4.00;4.00;;;;;26.08;44.67;101634.81;4973468;28;45807;-81
2022/07/13 01:30:49;;;;;;;;;5.67;3.67;;;;;26.01;44.93;101628.69;4986021;28;45379;-80
2022/07/13 01:33:15;;;;;;;;;4.00;4.00;;;;;26.05;44.35;101628.97;4983922;28;46200;-81
2022/07/13 01:35:41;;;;;;;;;2.33;2.33;;;;;26.05;44.71;101634.59;4998430;28;47091;-81
2022/07/13 01:38:07;;;;;;;;;6.33;4.00;;;;;26.04;44.75;101630.09;4998606;28;45522;-80
2022/07/13 01:40:32;;;;;;;;;3.00;2.00;;;;;26.03;44.47;101631.22;4978346;28;45707;-81
2022/07/13 01:42:58;;;;;;;;;3.67;3.67;;;;;26.06;44.39;101625.00;4998642;28;45681;-80
2022/07/13 01:45:24;;;;;;;;;4.00;4.00;;;;;26.06;44.21;101616.56;5000320;28;45443;-81
2022/07/13 01:47:51;;;;;;;;;2.33;2.33;;;;;26.06;44.08;101620.25;4966896;28;45759;-80
2022/07/13 01:50:21;;;;;;;;;4.33;2.67;;;;;26.07;44.32;101616.28;5000288;28;45452;-81
2022/07/13 01:52:47;;;;;;;;;3.67;3.67;;;;;26.01;43.95;101597.78;4995970;28;45352;-80
2022/07/13 01:55:13;;;;;;;;;3.67;2.67;;;;;26.10;44.18;101620.47;4992289;28;46149;-79
2022/07/13 01:57:39;;;;;;;;;3.00;3.00;;;;;25.94;44.00;101590.78;4990147;28;45611;-80
2022/07/13 02:00:07;;;;;;;;;4.00;3.00;;;;;26.12;43.86;101617.38;5023714;28;44912;-80
2022/07/13 02:02:33;;;;;;;;;4.33;3.00;;;;;26.15;43.45;101612.00;4988053;28;45730;-81
2022/07/13 02:04:59;;;;;;;;;6.00;5.00;;;;;26.16;43.44;101610.88;5004202;28;46084;-85
2022/07/13 02:07:26;;;;;;;;;3.00;3.00;;;;;26.18;43.73;101617.06;4994810;28;45378;-85
2022/07/13 02:09:55;;;;;;;;;3.00;3.00;;;;;26.24;43.40;101615.00;4994714;28;45752;-85
2022/07/13 02:12:23;;;;;;;;;6.00;3.00;;;;;26.21;43.60;101593.13;5018764;28;45550;-85
2022/07/13 02:14:49;;;;;;;;;1.67;1.67;;;;;26.25;43.86;101589.41;4987817;28;45482;-84
2022/07/13 02:17:18;;;;;;;;;4.67;4.00;;;;;26.34;43.74;101600.03;4997836;28;45756;-86
2022/07/13 02:19:43;;;;;;;;;3.67;3.67;;;;;26.38;43.55;101612.38;5020926;28;45744;-85
2022/07/13 02:22:12;;;;;;;;;5.33;4.33;;;;;26.37;43.80;101602.25;4997336;28;45821;-84
2022/07/13 02:24:41;;;;;;;;;2.67;2.67;;;;;26.12;44.50;101553.53;4993064;28;45505;-84
2022/07/13 02:27:07;;;;;;;;;3.00;3.00;;;;;26.43;44.46;101595.44;5014589;28;45512;-86
2022/07/13 02:29:39;;;;;;;;;4.00;2.67;;;;;26.20;44.41;101561.34;5003968;28;45184;-84
2022/07/13 02:32:08;;;;;;;;;5.33;3.33;;;;;26.22;45.20;101564.69;5000721;28;45543;-85
2022/07/13 02:34:37;;;;;;;;;4.00;4.00;;;;;26.19;44.32;101556.84;5004245;28;45854;-86
2022/07/13 02:37:11;;;;;;;;;3.00;3.00;;;;;26.21;44.47;101556.56;5004680;28;45518;-84
2022/07/13 02:39:38;;;;;;;;;4.67;4.00;;;;;26.45;43.78;101583.91;4981945;28;45755;-85
2022/07/13 02:42:15;;;;;;;;;4.00;4.00;;;;;26.17;43.82;101547.88;5002143;28;45639;-86
2022/07/13 02:44:42;;;;;;;;;2.33;2.33;;;;;26.22;43.64;101556.25;5004548;28;45524;-85
2022/07/13 02:47:13;;;;;;;;;3.33;3.33;;;;;26.47;43.75;101590.06;5018960;28;45367;-84
2022/07/13 02:49:40;;;;;;;;;2.33;2.33;;;;;26.21;43.24;101548.97;4980672;28;45835;-84
2022/07/13 02:52:06;;;;;;;;;4.33;4.33;;;;;26.39;43.47;101578.34;5003660;28;46197;-86
2022/07/13 02:54:35;;;;;;;;;5.00;5.00;;;;;26.31;44.18;101566.88;4987230;28;47142;-86
2022/07/13 02:57:01;;;;;;;;;2.00;2.00;;;;;26.47;44.48;101599.34;4978267;28;45318;-85
2022/07/13 02:59:31;;;;;;;;;8.00;6.67;;;;;26.34;49.30;101569.94;5006658;28;45582;-85
2022/07/13 03:01:57;;;;;;;;;9.33;8.33;;;;;26.08;51.63;101538.41;4996814;28;45781;-80
2022/07/13 03:04:22;;;;;;;;;6.67;6.67;;;;;26.40;52.45;101587.59;4980807;28;46483;-79
2022/07/13 03:06:47;;;;;;;;;10.00;7.33;;;;;26.32;56.03;101580.66;4963077;28;45485;-79
2022/07/13 03:09:13;;;;;;;;;9.33;8.00;;;;;26.25;57.81;101568.91;4975350;28;45624;-79
2022/07/13 03:11:38;;;;;;;;;9.00;9.00;;;;;26.28;58.46;101578.72;4993135;28;45777;-79
2022/07/13 03:14:04;;;;;;;;;9.33;8.00;;;;;26.33;58.87;101595.53;4987589;28;45760;-76
2022/07/13 03:16:29;;;;;;;;;9.33;8.33;;;;;26.25;58.09;101575.34;4997274;28;45447;-82
2022/07/13 03:18:58;;;;;;;;;12.33;9.33;;;;;26.24;58.88;101587.75;4984299;28;45279;-82
2022/07/13 03:21:29;;;;;;;;;8.67;7.67;;;;;26.06;59.26;101561.19;4988090;28;46084;-82
2022/07/13 03:23:59;;;;;;;;;10.67;9.67;;;;;26.05;62.96;101561.50;4997508;28;45869;-81
2022/07/13 03:26:25;;;;;;;;;12.00;8.00;;;;;26.18;64.52;101591.75;4985517;28;45468;-80
2022/07/13 03:28:51;;;;;;;;;11.67;11.67;;;;;25.96;66.22;101560.38;4999355;28;45774;-86
2022/07/13 03:31:17;;;;;;;;;15.00;12.33;;;;;26.03;67.69;101572.19;5002031;28;45423;-85
2022/07/13 03:33:44;;;;;;;;;13.67;10.67;;;;;25.96;69.52;101571.63;5007109;28;45510;-85
2022/07/13 03:36:10;;;;;;;;;15.00;14.00;;;;;25.85;72.01;101552.06;5015718;28;45522;-85
2022/07/13 03:38:36;;;;;;;;;14.67;11.33;;;;;26.03;73.35;101587.09;5010220;28;46019;-85
2022/07/13 03:41:02;;;;;;;;;13.67;10.33;;;;;26.01;73.11;101588.50;5005110;28;45401;-85
2022/07/13 03:43:28;;;;;;;;;20.67;13.33;;;;;25.85;74.31;101574.56;5012523;28;46634;-87
2022/07/13 03:45:54;;;;;;;;;17.33;13.33;;;;;25.94;73.77;101585.97;4988134;28;45677;-85
2022/07/13 03:48:20;;;;;;;;;15.33;13.00;;;;;25.78;74.12;101574.03;4989105;28;45624;-85
2022/07/13 03:50:47;;;;;;;;;14.33;13.33;;;;;25.66;74.41;101563.16;4976376;28;45942;-87
2022/07/13 03:53:14;;;;;;;;;16.33;12.00;;;;;25.85;74.53;101597.03;4979623;28;46356;-87
2022/07/13 03:56:01;;;;;;;;;;;;;;;;;;;;;
2022/07/13 03:58:27;;;;;;;;;15.67;10.67;;;;;25.67;73.22;101578.03;4999292;28;68023;-87
2022/07/13 04:00:55;;;;;;;;;14.33;12.67;;;;;25.79;74.34;101600.97;4998373;28;45712;-86
2022/07/13 04:03:26;;;;;;;;;14.00;11.00;;;;;25.78;74.58;101596.50;4996760;28;46880;-87
2022/07/13 04:05:56;;;;;;;;;14.00;12.00;;;;;25.78;75.15;101596.50;5036092;28;45842;-86
2022/07/13 04:08:25;;;;;;;;;11.33;11.33;;;;;25.78;74.55;101602.13;5010902;28;45428;-88
2022/07/13 04:11:08;;;;;;;;;14.00;10.67;;;;;25.50;74.45;101562.41;5014183;28;45470;-88
2022/07/13 04:13:57;;;;;;;;;13.00;11.67;;;;;25.54;74.34;101557.88;5001412;28;45296;-88
2022/07/13 04:16:35;;;;;;;;;16.67;12.00;;;;;25.51;74.73;101564.09;5014597;28;45663;-88
2022/07/13 04:19:04;;;;;;;;;25.67;23.00;;;;;25.75;75.13;101599.03;5002591;28;45394;-86
2022/07/13 04:21:29;;;;;;;;;31.67;25.67;;;;;25.42;75.34;101548.97;4988170;28;45439;-83
2022/07/13 04:23:55;;;;;;;;;11.33;11.33;;;;;25.61;75.16;101571.59;4986550;28;45880;-84
2022/07/13 04:26:21;;;;;;;;;16.00;15.00;;;;;25.67;75.30;101578.03;4979230;28;45779;-85
2022/07/13 04:28:49;;;;;;;;;13.67;10.67;;;;;25.78;75.44;101590.91;5003765;28;45877;-88
2022/07/13 04:31:18;;;;;;;;;14.00;12.00;;;;;25.80;75.84;101596.22;5010249;28;45310;-89
2022/07/13 04:33:46;;;;;;;;;16.67;14.33;;;;;25.54;76.08;101541.03;5015224;28;46311;-87
2022/07/13 04:36:13;;;;;;;;;14.33;14.33;;;;;25.62;76.00;101548.00;5023325;28;45523;-86
2022/07/13 04:38:39;;;;;;;;;18.00;15.00;;;;;25.75;76.02;101563.38;4996617;28;45630;-87
2022/07/13 04:41:09;;;;;;;;;13.67;11.67;;;;;25.84;75.26;101578.47;4984779;28;45793;-87
2022/07/13 04:43:35;;;;;;;;;12.00;10.67;;;;;26.00;74.43;101592.44;4995991;28;45437;-87
2022/07/13 04:46:00;;;;;;;;;13.67;12.00;;;;;26.05;73.94;101595.22;5017347;28;45609;-86
2022/07/13 04:48:26;;;;;;;;;15.67;12.33;;;;;26.11;73.76;101591.25;4998942;28;44856;-85
2022/07/13 04:50:51;;;;;;;;;14.67;11.33;;;;;26.08;73.97;101574.97;5003051;28;45458;-83
2022/07/13 04:53:17;;;;;;;;;14.00;12.67;;;;;26.18;73.83;101582.44;4999371;28;45514;-83
2022/07/13 04:55:43;;;;;;;;;14.33;14.33;;;;;26.10;73.55;101564.25;4979938;28;45454;-81
2022/07/13 04:58:08;;;;;;;;;16.67;13.00;;;;;26.23;73.43;101579.63;4995739;28;45413;-80
2022/07/13 05:00:34;;;;;;;;;17.33;14.33;;;;;26.37;73.02;101589.03;4995718;28;45550;-82
2022/07/13 05:03:00;;;;;;;;;12.67;12.67;;;;;26.34;72.61;101574.72;4991935;28;45875;-83
2022/07/13 05:05:28;;;;;;;;;18.00;14.00;;;;;26.43;71.52;101579.41;4991566;28;45781;-84
2022/07/13 05:07:54;;;;;;;;;19.00;16.00;;;;;26.40;71.27;101562.28;4986685;28;44861;-82
2022/07/13 05:11:00;;;;;;;;;20.67;15.67;;;;;26.57;72.01;101588.00;4990540;28;46108;-86
2022/07/13 05:13:19;;;;;;;;;15.00;12.00;;;;;26.65;70.85;101588.47;4990759;28;46502;-83
2022/07/13 05:15:45;;;;;;;;;13.67;11.33;;;;;26.68;70.65;101590.75;4982256;28;45977;-82
2022/07/13 05:18:11;;;;;;;;;16.67;13.33;;;;;26.70;69.72;101591.28;4992968;28;45393;-81
2022/07/13 05:20:36;;;;;;;;;10.33;8.67;;;;;26.76;64.42;101573.19;4997099;28;45975;-84
2022/07/13 05:23:02;;;;;;;;;13.67;9.33;;;;;26.67;60.97;101555.28;5004159;28;45501;-83
2022/07/13 05:25:31;;;;;;;;;11.67;9.33;;;;;26.93;61.52;101593.28;4982975;28;45769;-87
2022/07/13 05:27:57;;;;;;;;;10.67;7.67;;;;;26.89;59.96;101566.84;4977440;28;45416;-85
2022/07/13 05:30:22;;;;;;;;;12.67;9.67;;;;;27.13;57.76;101591.34;4995859;28;46606;-85
2022/07/13 05:32:48;;;;;;;;;8.67;6.33;;;;;27.23;57.36;101590.38;4998386;28;45595;-85
2022/07/13 05:35:17;;;;;;;;;13.00;11.33;;;;;27.01;56.50;101546.72;5007079;28;45412;-87
2022/07/13 05:37:43;;;;;;;;;11.00;9.00;;;;;27.08;55.89;101533.13;5002582;28;45897;-83
2022/07/13 05:40:13;;;;;;;;;8.00;6.00;;;;;27.53;52.66;101599.56;4988582;28;45925;-86
2022/07/13 05:42:39;;;;;;;;;8.00;5.00;;;;;27.62;51.05;101609.88;4972912;28;46914;-84
2022/07/13 05:45:05;;;;;;;;;4.00;4.00;;;;;27.70;50.41;101602.72;4992670;28;44834;-81
2022/07/13 05:47:33;;;;;;;;;7.33;5.00;;;;;27.79;48.91;101597.25;4990968;28;45923;-86
2022/07/13 05:49:59;;;;;;;;;6.00;6.00;;;;;28.02;48.42;101614.38;4981130;28;45817;-84
2022/07/13 05:52:25;;;;;;;;;5.00;4.33;;;;;28.13;48.03;101613.94;4985825;28;47833;-83
2022/07/13 05:54:51;;;;;;;;;4.33;4.33;;;;;28.15;47.54;101591.88;4980487;28;45531;-81
2022/07/13 05:57:16;;;;;;;;;5.00;3.00;;;;;28.38;47.19;101610.97;4980378;28;45967;-81
2022/07/13 05:59:42;;;;;;;;;6.00;6.00;;;;;28.28;46.95;101578.97;4991887;28;45781;-85
2022/07/13 06:02:08;;;;;;;;;3.67;3.67;;;;;28.56;47.18;101598.78;4972638;28;48052;-82
2022/07/13 06:04:33;;;;;;;;;6.33;4.00;;;;;28.80;45.84;101615.56;4984895;28;45424;-78
2022/07/13 06:06:58;;;;;;;;;4.67;4.67;;;;;28.93;44.26;101618.75;4977397;28;45426;-79
2022/07/13 06:09:24;;;;;;;;;9.33;6.33;;;;;29.07;43.27;101622.38;4996399;28;45854;-81
2022/07/13 06:11:50;;;;;;;;;4.00;3.00;;;;;29.21;43.12;101626.09;4981433;28;46582;-80
2022/07/13 06:14:16;;;;;;;;;4.00;4.00;;;;;29.34;42.13;101623.56;4994637;28;46145;-79
2022/07/13 06:16:41;;;;;;;;;6.67;4.00;;;;;29.52;41.76;101622.63;4974980;28;45619;-76
2022/07/13 06:19:07;;;;;;;;;3.33;3.00;;;;;29.56;40.72;101611.50;4987082;28;45798;-77
2022/07/13 06:21:32;;;;;;;;;3.33;3.00;;;;;29.70;39.76;101614.28;4962185;28;47004;-78
2022/07/13 06:24:26;;;;;;;;;4.33;4.33;;;;;29.76;39.53;101616.69;4992092;28;45427;-83
2022/07/13 06:27:02;;;;;;;;;3.00;3.00;;;;;29.88;39.06;101604.00;4972550;28;45817;-83
2022/07/13 06:29:27;;;;;;;;;7.33;5.00;;;;;30.05;39.02;101618.28;4970186;28;45647;-79
2022/07/13 06:31:53;;;;;;;;;5.00;4.00;;;;;30.05;38.48;101615.47;4987839;28;46129;-80
2022/07/13 06:34:19;;;;;;;;;6.33;5.00;;;;;30.13;38.84;101615.84;4970827;28;45512;-81
2022/07/13 06:36:44;;;;;;;;;4.67;4.67;;;;;30.17;39.01;101611.22;4983104;28;45475;-80
2022/07/13 06:39:52;;;;;;;;;7.33;5.00;;;;;30.24;39.05;101612.44;4989110;28;46719;-84
2022/07/13 06:42:17;;;;;;;;;5.33;5.33;;;;;29.92;38.33;101554.94;4986353;28;46072;-80
2022/07/13 06:44:43;;;;;;;;;5.67;4.67;;;;;30.19;37.77;101580.63;4998709;28;45518;-82
2022/07/13 06:47:08;;;;;;;;;3.33;3.33;;;;;30.41;37.66;101596.78;4985465;28;45715;-77
2022/07/13 06:49:33;;;;;;;;;5.67;5.00;;;;;30.63;37.61;101612.91;4974340;28;46110;-79
2022/07/13 06:51:59;;;;;;;;;6.00;5.33;;;;;30.81;38.13;101616.66;4989628;28;45930;-79
2022/07/13 06:54:25;;;;;;;;;5.00;5.00;;;;;31.01;38.36;101611.59;4982587;28;45451;-80
2022/07/13 06:56:56;;;;;;;;;8.67;7.00;;;;;31.13;37.75;101600.47;4989176;28;45741;-83
2022/07/13 06:59:21;;;;;;;;;7.33;6.00;;;;;31.14;38.14;101588.81;4983314;28;45664;-84
2022/07/13 07:01:52;;;;;;;;;9.33;7.33;;;;;31.47;38.38;101618.72;4984807;28;45438;-85
2022/07/13 07:04:18;;;;;;;;;7.00;5.67;;;;;31.58;37.57;101605.09;4986791;28;45366;-85
2022/07/13 07:06:44;;;;;;;;;7.67;6.00;;;;;31.89;37.86;101585.09;4999049;28;44790;-82
2022/07/13 07:09:09;;;;;;;;;9.67;7.00;;;;;32.50;35.84;101575.66;4984088;28;45457;-81
2022/07/13 07:11:34;;;;;;;;;6.67;6.00;;;;;33.16;34.90;101602.81;4984887;28;45756;-79
2022/07/13 07:14:00;;;;;;;;;10.33;6.67;;;;;33.49;34.85;101605.81;4996621;28;45819;-81
2022/07/13 07:16:26;;;;;;;;;9.67;8.33;;;;;33.90;35.03;101628.97;4981513;28;45406;-83
2022/07/13 07:18:51;;;;;;;;;11.67;10.00;;;;;34.17;34.39;101619.00;4998010;28;45478;-81
2022/07/13 07:21:31;;;;;;;;;11.67;9.67;;;;;34.26;34.28;101602.69;4990027;28;45676;-83
2022/07/13 07:23:57;;;;;;;;;8.67;7.33;;;;;34.53;33.03;101626.03;4983989;28;45636;-82
2022/07/13 07:26:25;;;;;;;;;7.67;7.67;;;;;34.49;32.57;101607.97;4991206;28;44786;-83
2022/07/13 07:29:14;;;;;;;;;11.33;8.67;;;;;34.31;32.73;101573.16;5002715;28;46329;-84
2022/07/13 07:32:04;;;;;;;;;;;;;;;;;;;;;
2022/07/13 07:34:34;;;;;;;;;3.67;3.33;;;;;34.79;32.25;101628.63;4991702;28;72569;-82
2022/07/13 07:37:00;;;;;;;;;8.33;6.00;;;;;35.12;31.61;101624.00;4994552;28;45374;-82
2022/07/13 07:39:30;;;;;;;;;5.67;4.33;;;;;35.85;29.60;101625.16;4996385;28;45787;-82
2022/07/13 07:41:56;;;;;;;;;6.00;5.00;;;;;36.21;29.35;101600.50;4985973;28;46122;-87
2022/07/13 07:44:42;;;;;;;;;6.33;5.67;;;;;36.56;28.54;101623.53;5004295;28;45633;-87
2022/07/13 07:47:35;;;;;;;;;6.33;6.33;;;;;36.73;28.95;101616.63;4995754;28;44776;-89
2022/07/13 07:50:11;;;;;;;;;7.00;6.00;;;;;36.74;28.50;101621.16;5009032;28;45534;-89
2022/07/13 07:52:37;;;;;;;;;7.33;5.00;;;;;36.55;29.30;101592.47;4977501;28;47183;-82
2022/07/13 07:56:07;;;;;;;;;7.67;5.33;;;;;36.70;28.79;101623.09;4976852;28;45873;-84
2022/07/13 07:59:01;;;;;;;;;5.00;4.00;;;;;36.54;27.82;101616.53;4937665;28;45797;-86
2022/07/13 08:01:33;;;;;;;;;5.67;5.00;;;;;36.42;28.53;101606.00;4990466;28;45722;-80
2022/07/13 08:03:59;;;;;;;;;4.67;3.33;;;;;36.54;27.15;101605.09;4989086;28;45979;-85
2022/07/13 08:06:31;;;;;;;;;4.00;2.33;;;;;36.76;26.73;101617.97;4987042;28;45701;-84
2022/07/13 08:08:57;;;;;;;;;4.00;3.67;;;;;36.79;26.93;101605.78;4966987;28;45517;-84
2022/07/13 08:11:26;;;;;;;;;4.33;3.67;;;;;37.73;25.50;101600.31;4984021;28;45604;-83
2022/07/13 08:13:52;;;;;;;;;4.67;3.00;;;;;37.86;24.80;101594.44;4995767;28;45487;-83
2022/07/13 08:16:19;;;;;;;;;5.67;4.67;;;;;38.40;24.84;101599.25;4995872;28;45547;-83
2022/07/13 08:18:45;;;;;;;;;4.00;4.00;;;;;39.93;23.56;101597.56;4984521;28;44828;-82
2022/07/13 08:21:20;;;;;;;;;5.67;5.00;;;;;40.82;22.72;101619.94;4987901;28;45619;-84
2022/07/13 08:23:52;;;;;;;;;4.00;3.00;;;;;42.25;21.48;101602.75;4986123;28;48339;-83
2022/07/13 08:26:32;;;;;;;;;8.33;8.33;;;;;43.75;19.91;101597.31;4988830;28;45482;-84
2022/07/13 08:28:59;;;;;;;;;8.00;8.00;;;;;45.40;18.33;101601.09;4984236;28;45783;-82
2022/07/13 08:31:27;;;;;;;;;3.67;3.67;;;;;46.85;18.26;101583.34;4999380;28;45767;-83
2022/07/13 08:39:24;;;;;;;;;3.00;3.00;;;;;51.25;14.53;101609.53;4982681;28;46061;-78
2022/07/13 08:41:49;;;;;;;;;4.00;4.00;;;;;52.17;13.89;101596.84;4983774;28;45931;-74
2022/07/13 08:44:15;;;;;;;;;4.33;3.67;;;;;53.25;12.45;101598.88;4968564;28;47720;-75
2022/07/13 08:46:41;;;;;;;;;3.67;3.67;;;;;54.00;11.91;101593.72;4969076;28;45763;-73
2022/07/13 08:49:08;;;;;;;;;6.00;4.00;;;;;54.79;11.90;101589.72;4967778;28;45798;-75
2022/07/13 08:51:34;;;;;;;;;5.00;4.00;;;;;55.89;11.45;101598.84;4981972;28;45974;-75
2022/07/13 08:54:01;;;;;;;;;4.00;3.00;;;;;56.70;10.34;101593.69;4968620;28;47801;-74
2022/07/13 08:56:27;;;;;;;;;2.33;2.33;;;;;57.07;9.99;101586.38;4980913;28;45415;-75
2022/07/13 08:58:52;;;;;;;;;3.67;2.67;;;;;57.74;10.56;101588.44;4989549;28;45569;-75
2022/07/13 09:01:19;;;;;;;;;3.00;2.67;;;;;58.36;9.87;101588.09;4994218;28;45894;-82
2022/07/13 09:03:46;;;;;;;;;2.00;2.00;;;;;58.91;9.43;101580.88;4989746;28;45839;-82
2022/07/13 09:06:42;;;;;;;;;2.33;2.33;;;;;59.44;9.76;101580.47;4983010;28;45668;-83
2022/07/13 09:09:22;;;;;;;;;2.67;2.33;;;;;59.95;8.63;101577.53;4988310;28;45476;-83
2022/07/13 09:11:48;;;;;;;;;3.33;2.33;;;;;60.17;8.82;101562.69;4987646;28;45578;-82
2022/07/13 09:14:24;;;;;;;;;2.00;2.00;;;;;60.55;8.26;101580.94;4985988;28;45165;-82
2022/07/13 09:16:51;;;;;;;;;2.67;1.33;;;;;60.95;8.64;101589.63;4993837;28;45546;-82
2022/07/13 09:19:17;;;;;;;;;1.67;1.67;;;;;61.23;8.11;101579.78;4995660;28;45477;-82
2022/07/13 09:21:42;;;;;;;;;3.00;1.00;;;;;61.78;8.56;101576.94;4983718;28;45392;-82
2022/07/13 09:24:08;;;;;;;;;1.00;1.00;;;;;61.97;7.91;101577.03;4994239;28;46177;-83
2022/07/13 09:26:41;;;;;;;;;4.33;4.00;;;;;62.24;7.40;101572.13;4987464;28;45399;-74
2022/07/13 09:29:07;;;;;;;;;1.67;1.67;;;;;62.41;7.70;101574.09;4999050;28;45779;-74
2022/07/13 09:31:52;;;;;;;;;6.00;6.00;;;;;62.71;8.13;101562.13;4985797;28;45640;-75
2022/07/13 09:34:18;;;;;;;;;7.00;6.00;;;;;63.04;6.37;101574.09;4967658;28;45546;-75
2022/07/13 09:36:44;;;;;;;;;7.67;5.00;;;;;63.18;7.04;101563.91;4975285;28;45851;-74
2022/07/13 09:39:10;;;;;;;;;2.00;2.00;;;;;62.97;6.87;101549.56;4987644;28;45765;-74
2022/07/13 09:41:36;;;;;;;;;3.00;2.67;;;;;62.78;6.96;101561.50;4983125;28;46056;-74
2022/07/13 09:47:04;;;;;;;;;4.33;3.00;;;;;62.51;6.42;101562.66;4983907;28;45768;-73
2022/07/13 09:49:34;;;;;;;;;2.00;2.00;;;;;62.77;6.92;101559.06;4993585;28;45485;-75
2022/07/13 09:52:02;;;;;;;;;2.00;2.00;;;;;62.95;6.85;101569.38;4981640;28;45925;-74
2022/07/13 09:54:31;;;;;;;;;1.67;1.33;;;;;62.83;6.06;101557.63;4967481;28;45855;-72
2022/07/13 09:56:59;;;;;;;;;1.67;1.67;;;;;63.12;6.61;101566.16;4956387;28;45633;-74
2022/07/13 09:59:26;;;;;;;;;1.00;1.00;;;;;63.30;5.50;101559.34;4999835;28;45467;-73
2022/07/13 10:01:52;;;;;;;;;1.00;1.00;;;;;63.51;6.11;101556.56;4987356;28;45981;-74
2022/07/13 10:04:18;;;;;;;;;2.33;2.33;;;;;63.78;6.58;101555.84;4984342;28;48672;-73
2022/07/13 10:06:44;;;;;;;;;3.00;2.00;;;;;64.01;6.13;101559.22;4992690;28;45305;-74
2022/07/13 10:09:10;;;;;;;;;2.00;2.00;;;;;64.01;6.00;101536.19;4993261;28;45712;-75
2022/07/13 10:11:36;;;;;;;;;2.00;2.00;;;;;63.92;6.75;101556.66;4999831;28;45466;-76
2022/07/13 10:14:04;;;;;;;;;1.67;1.67;;;;;63.75;5.50;101548.06;4982369;28;46405;-75
2022/07/13 10:16:31;;;;;;;;;3.00;3.00;;;;;63.64;6.02;101552.84;4970000;28;45493;-74
2022/07/13 10:19:03;;;;;;;;;3.00;3.00;;;;;63.72;6.12;101550.00;4994216;28;45403;-75
2022/07/13 10:21:55;;;;;;;;;2.00;2.00;;;;;63.69;6.83;101548.16;4990685;28;45898;-76
2022/07/13 10:24:21;;;;;;;;;4.00;3.50;;;;;63.67;6.54;101545.75;4994717;28;46736;-73
2022/07/13 10:26:49;;;;;;;;;2.00;2.00;;;;;63.70;6.45;101546.81;4989103;28;45417;-77
2022/07/13 10:29:15;;;;;;;;;3.67;3.67;;;;;63.77;6.84;101540.19;4985365;28;45622;-74
2022/07/13 10:31:42;;;;;;;;;1.00;1.00;;;;;63.75;6.01;101528.00;4979715;28;45529;-74
2022/07/13 10:34:10;;;;;;;;;1.67;1.67;;;;;63.40;6.32;101526.19;4978433;28;46196;-74
2022/07/13 10:36:49;;;;;;;;;0.75;0.75;;;;;62.49;7.10;101522.38;4981856;28;45785;-73
2022/07/13 10:39:15;;;;;;;;;2.00;2.00;;;;;62.30;6.78;101530.47;4986953;28;45873;-74
2022/07/13 10:42:17;;;;;;;;;1.00;1.00;;;;;62.17;6.67;101524.41;4961514;28;45802;-74
2022/07/13 10:44:43;;;;;;;;;1.00;1.00;;;;;62.19;7.45;101521.69;4964036;28;45756;-74
2022/07/13 10:47:13;;;;;;;;;0.00;0.00;;;;;62.04;7.57;101525.91;4987554;28;45862;-74
2022/07/13 10:49:51;;;;;;;;;0.67;0.67;;;;;62.04;7.72;101528.88;4985708;28;45610;-73
2022/07/13 10:52:22;;;;;;;;;1.00;1.00;;;;;62.00;7.01;101522.44;4978019;28;45752;-74
2022/07/13 10:55:03;;;;;;;;;3.00;2.00;;;;;61.94;7.51;101522.50;4965589;28;45530;-73
2022/07/13 10:57:29;;;;;;;;;2.00;2.00;;;;;61.90;6.98;101524.97;4968115;28;45547;-74
2022/07/13 11:00:04;;;;;;;;;5.00;4.00;;;;;61.50;7.69;101518.59;4984231;28;45360;-74
2022/07/13 11:02:49;;;;;;;;;2.00;2.00;;;;;61.05;6.97;101519.72;4977404;28;45531;-75
2022/07/13 11:05:20;;;;;;;;;1.33;1.33;;;;;60.73;8.19;101517.22;4964529;28;48187;-75
2022/07/13 11:07:51;;;;;;;;;1.67;1.67;;;;;60.55;7.88;101521.66;4983670;28;45532;-75
2022/07/13 11:10:18;;;;;;;;;1.33;1.33;;;;;59.98;8.00;101508.34;4986727;28;45820;-74
2022/07/13 11:12:57;;;;;;;;;2.00;2.00;;;;;59.33;7.94;101513.19;4980719;28;45908;-74
2022/07/13 11:15:23;;;;;;;;;5.00;4.00;;;;;58.98;8.86;101508.59;4980606;28;45766;-75
2022/07/13 11:17:53;;;;;;;;;4.00;4.00;;;;;58.19;8.83;101487.59;4981718;28;45684;-75
2022/07/13 11:20:18;;;;;;;;;7.00;5.00;;;;;57.39;9.29;101495.84;4981655;28;45551;-77
2022/07/13 11:25:55;;;;;;;;;2.00;2.00;;;;;55.63;9.65;101503.69;4973790;28;45695;-74
2022/07/13 11:28:28;;;;;;;;;3.33;3.33;;;;;54.52;10.66;101482.03;4979619;28;45547;-76
2022/07/13 11:30:56;;;;;;;;;3.00;3.00;;;;;53.63;10.71;101494.03;4977167;28;45903;-75
2022/07/13 11:33:23;;;;;;;;;2.00;2.00;;;;;52.51;10.74;101484.53;4968133;28;47003;-73
2022/07/13 11:35:49;;;;;;;;;4.00;4.00;;;;;51.32;11.78;101483.56;4979892;28;45794;-73
2022/07/13 11:38:16;;;;;;;;;3.00;2.00;;;;;50.10;12.71;101485.00;4961520;28;45925;-73
2022/07/13 11:40:43;;;;;;;;;3.67;3.67;;;;;49.15;12.85;101477.50;4977488;28;46063;-74
2022/07/13 11:43:09;;;;;;;;;3.33;2.33;;;;;48.31;14.09;101474.38;4976495;28;45726;-74
2022/07/13 11:45:38;;;;;;;;;4.00;3.00;;;;;47.56;14.03;101480.69;4960976;28;47984;-73